sensor_id;sensor_type;location;lat;lon;timestamp;temperature;humidity
20773;DHT22;10546;50.674;4.616;2022-10-13T04:56:56;12.90;99.90
20773;DHT22;10546;50.674;4.616;2022-10-13T04:59:23;12.90;99.90
20773;DHT22;10546;50.674;4.616;2022-10-13T05:01:49;13.00;99.90
20773;DHT22;10546;50.674;4.616;2022-10-13T05:04:14;13.00;99.90
20773;DHT22;10546;50.674;4.616;2022-10-13T05:06:41;12.90;99.90
20773;DHT22;10546;50.674;4.616;2022-10-13T05:09:08;13.00;99.90
20773;DHT22;10546;50.674;4.616;2022-10-13T05:11:33;13.00;99.90
20773;DHT22;10546;50.674;4.616;2022-10-13T05:14:00;13.00;99.90
20773;DHT22;10546;50.674;4.616;2022-10-13T05:16:26;13.00;99.90
20773;DHT22;10546;50.674;4.616;2022-10-13T05:18:53;12.90;99.90
20773;DHT22;10546;50.674;4.616;2022-10-13T05:21:27;12.90;99.90
20773;DHT22;10546;50.674;4.616;2022-10-13T05:23:54;12.80;99.90
20773;DHT22;10546;50.674;4.616;2022-10-13T05:26:22;12.80;99.90
20773;DHT22;10546;50.674;4.616;2022-10-13T05:28:48;12.90;99.90
20773;DHT22;10546;50.674;4.616;2022-10-13T05:31:19;12.80;99.90
20773;DHT22;10546;50.674;4.616;2022-10-13T05:33:46;12.80;99.90
20773;DHT22;10546;50.674;4.616;2022-10-13T05:36:21;12.90;99.90
20773;DHT22;10546;50.674;4.616;2022-10-13T05:38:52;12.80;99.90
20773;DHT22;10546;50.674;4.616;2022-10-13T05:41:18;12.80;99.90
20773;DHT22;10546;50.674;4.616;2022-10-13T05:43:44;12.90;99.90
20773;DHT22;10546;50.674;4.616;2022-10-13T05:46:10;13.00;99.90
20773;DHT22;10546;50.674;4.616;2022-10-13T05:48:36;12.90;99.90
20773;DHT22;10546;50.674;4.616;2022-10-13T05:51:05;12.90;99.90
20773;DHT22;10546;50.674;4.616;2022-10-13T05:53:40;12.90;99.90
20773;DHT22;10546;50.674;4.616;2022-10-13T05:56:13;12.90;99.90
20773;DHT22;10546;50.674;4.616;2022-10-13T05:58:43;12.80;99.90
20773;DHT22;10546;50.674;4.616;2022-10-13T06:01:14;12.90;99.90
20773;DHT22;10546;50.674;4.616;2022-10-13T06:03:40;13.00;99.90
20773;DHT22;10546;50.674;4.616;2022-10-13T06:06:07;13.00;99.90
20773;DHT22;10546;50.674;4.616;2022-10-13T06:08:33;13.00;99.90
20773;DHT22;10546;50.674;4.616;2022-10-13T06:11:00;13.00;99.90
20773;DHT22;10546;50.674;4.616;2022-10-13T06:13:26;13.10;99.90
20773;DHT22;10546;50.674;4.616;2022-10-13T06:15:51;13.10;99.90
20773;DHT22;10546;50.674;4.616;2022-10-13T06:18:17;13.00;99.90
20773;DHT22;10546;50.674;4.616;2022-10-13T06:20:42;13.00;99.90
20773;DHT22;10546;50.674;4.616;2022-10-13T06:23:08;13.00;99.90
20773;DHT22;10546;50.674;4.616;2022-10-13T06:25:34;13.00;99.90
20773;DHT22;10546;50.674;4.616;2022-10-13T06:28:00;13.10;99.90
20773;DHT22;10546;50.674;4.616;2022-10-13T06:30:26;13.10;99.90
20773;DHT22;10546;50.674;4.616;2022-10-13T06:32:55;13.10;99.90
20773;DHT22;10546;50.674;4.616;2022-10-13T06:35:24;13.10;99.90
20773;DHT22;10546;50.674;4.616;2022-10-13T06:37:49;13.10;99.90
20773;DHT22;10546;50.674;4.616;2022-10-13T06:40:17;13.10;99.90
20773;DHT22;10546;50.674;4.616;2022-10-13T06:42:48;13.20;99.90
20773;DHT22;10546;50.674;4.616;2022-10-13T06:45:14;13.20;99.90
20773;DHT22;10546;50.674;4.616;2022-10-13T06:47:40;13.20;99.90
20773;DHT22;10546;50.674;4.616;2022-10-13T06:50:05;13.20;99.90
20773;DHT22;10546;50.674;4.616;2022-10-13T06:52:31;13.20;99.90
20773;DHT22;10546;50.674;4.616;2022-10-13T06:54:56;13.20;99.90
20773;DHT22;10546;50.674;4.616;2022-10-13T06:57:22;13.20;99.90
20773;DHT22;10546;50.674;4.616;2022-10-13T06:59:47;13.30;99.90
20773;DHT22;10546;50.674;4.616;2022-10-13T07:02:13;13.30;99.90
20773;DHT22;10546;50.674;4.616;2022-10-13T07:04:39;13.40;99.90
20773;DHT22;10546;50.674;4.616;2022-10-13T07:07:04;13.40;99.90
20773;DHT22;10546;50.674;4.616;2022-10-13T07:09:30;13.40;99.90
20773;DHT22;10546;50.674;4.616;2022-10-13T07:11:56;13.50;99.90
20773;DHT22;10546;50.674;4.616;2022-10-13T07:14:22;13.50;99.90
20773;DHT22;10546;50.674;4.616;2022-10-13T07:16:47;13.60;99.90
20773;DHT22;10546;50.674;4.616;2022-10-13T07:19:13;13.70;99.90
20773;DHT22;10546;50.674;4.616;2022-10-13T07:21:39;13.60;99.90
20773;DHT22;10546;50.674;4.616;2022-10-13T07:24:04;13.70;99.90
20773;DHT22;10546;50.674;4.616;2022-10-13T07:26:31;13.60;99.90
20773;DHT22;10546;50.674;4.616;2022-10-13T07:28:58;13.50;99.90
20773;DHT22;10546;50.674;4.616;2022-10-13T07:31:24;13.50;99.90
20773;DHT22;10546;50.674;4.616;2022-10-13T07:33:50;13.50;99.90
20773;DHT22;10546;50.674;4.616;2022-10-13T07:36:17;13.50;99.90
20773;DHT22;10546;50.674;4.616;2022-10-13T07:38:44;13.50;99.90
20773;DHT22;10546;50.674;4.616;2022-10-13T07:41:11;13.50;99.90
20773;DHT22;10546;50.674;4.616;2022-10-13T07:43:37;13.40;99.90
20773;DHT22;10546;50.674;4.616;2022-10-13T07:46:04;13.50;99.90
20773;DHT22;10546;50.674;4.616;2022-10-13T07:48:30;13.40;99.90
20773;DHT22;10546;50.674;4.616;2022-10-13T07:50:56;13.30;99.90
20773;DHT22;10546;50.674;4.616;2022-10-13T07:53:22;13.30;99.90
20773;DHT22;10546;50.674;4.616;2022-10-13T07:55:48;13.30;99.90
20773;DHT22;10546;50.674;4.616;2022-10-13T07:58:14;13.30;99.90
20773;DHT22;10546;50.674;4.616;2022-10-13T08:00:40;13.30;99.90
20773;DHT22;10546;50.674;4.616;2022-10-13T08:03:06;13.40;99.90
20773;DHT22;10546;50.674;4.616;2022-10-13T08:05:31;13.40;99.90
20773;DHT22;10546;50.674;4.616;2022-10-13T08:07:57;13.40;99.90
20773;DHT22;10546;50.674;4.616;2022-10-13T08:10:23;13.40;99.90
20773;DHT22;10546;50.674;4.616;2022-10-13T08:12:49;13.40;99.90
20773;DHT22;10546;50.674;4.616;2022-10-13T08:15:17;13.50;99.90
20773;DHT22;10546;50.674;4.616;2022-10-13T08:17:43;13.50;99.90
20773;DHT22;10546;50.674;4.616;2022-10-13T08:20:08;13.50;99.90
20773;DHT22;10546;50.674;4.616;2022-10-13T08:22:35;13.40;99.90
20773;DHT22;10546;50.674;4.616;2022-10-13T08:25:00;13.50;99.90
20773;DHT22;10546;50.674;4.616;2022-10-13T08:27:27;13.50;99.90
20773;DHT22;10546;50.674;4.616;2022-10-13T08:29:53;13.50;99.90
20773;DHT22;10546;50.674;4.616;2022-10-13T08:32:20;13.50;99.90
20773;DHT22;10546;50.674;4.616;2022-10-13T08:34:46;13.50;99.90
20773;DHT22;10546;50.674;4.616;2022-10-13T08:37:14;13.50;99.90
20773;DHT22;10546;50.674;4.616;2022-10-13T08:39:40;13.50;99.90
20773;DHT22;10546;50.674;4.616;2022-10-13T08:42:15;13.50;99.90
20773;DHT22;10546;50.674;4.616;2022-10-13T08:44:45;13.50;99.90
20773;DHT22;10546;50.674;4.616;2022-10-13T08:47:19;13.60;99.90
20773;DHT22;10546;50.674;4.616;2022-10-13T08:49:48;13.60;99.90
20773;DHT22;10546;50.674;4.616;2022-10-13T08:52:19;13.70;99.90
20773;DHT22;10546;50.674;4.616;2022-10-13T08:54:46;13.70;99.90
20773;DHT22;10546;50.674;4.616;2022-10-13T08:57:11;13.80;99.90
20773;DHT22;10546;50.674;4.616;2022-10-13T08:59:37;13.80;99.90
20773;DHT22;10546;50.674;4.616;2022-10-13T09:02:11;13.90;99.90
20773;DHT22;10546;50.674;4.616;2022-10-13T09:04:40;13.90;99.90
20773;DHT22;10546;50.674;4.616;2022-10-13T09:09:33;14.00;99.90
20773;DHT22;10546;50.674;4.616;2022-10-13T09:11:59;14.10;99.90
20773;DHT22;10546;50.674;4.616;2022-10-13T09:14:25;14.30;99.90
20773;DHT22;10546;50.674;4.616;2022-10-13T09:16:53;14.30;99.90
20773;DHT22;10546;50.674;4.616;2022-10-13T09:21:44;14.40;99.90
20773;DHT22;10546;50.674;4.616;2022-10-13T09:24:14;14.40;99.90
20773;DHT22;10546;50.674;4.616;2022-10-13T09:26:41;14.50;99.90
20773;DHT22;10546;50.674;4.616;2022-10-13T09:29:15;14.50;99.90
20773;DHT22;10546;50.674;4.616;2022-10-13T09:31:41;14.40;99.90
20773;DHT22;10546;50.674;4.616;2022-10-13T09:34:21;14.50;99.90
20773;DHT22;10546;50.674;4.616;2022-10-13T09:37:01;14.50;99.90
20773;DHT22;10546;50.674;4.616;2022-10-13T09:39:29;14.60;99.90
20773;DHT22;10546;50.674;4.616;2022-10-13T09:42:21;14.60;99.90
20773;DHT22;10546;50.674;4.616;2022-10-13T09:44:59;14.60;99.90
20773;DHT22;10546;50.674;4.616;2022-10-13T09:47:26;14.70;99.90
20773;DHT22;10546;50.674;4.616;2022-10-13T09:50:03;14.90;99.90
20773;DHT22;10546;50.674;4.616;2022-10-13T09:52:29;15.10;99.90
20773;DHT22;10546;50.674;4.616;2022-10-13T09:54:58;15.10;99.90
20773;DHT22;10546;50.674;4.616;2022-10-13T10:00:18;15.20;99.90
20773;DHT22;10546;50.674;4.616;2022-10-13T10:05:56;15.10;99.90
20773;DHT22;10546;50.674;4.616;2022-10-13T10:10:54;15.40;99.90
20773;DHT22;10546;50.674;4.616;2022-10-13T10:13:20;15.40;99.90
20773;DHT22;10546;50.674;4.616;2022-10-13T10:16:10;15.50;99.90
20773;DHT22;10546;50.674;4.616;2022-10-13T10:18:44;15.70;99.90
20773;DHT22;10546;50.674;4.616;2022-10-13T10:24:26;16.00;99.90
20773;DHT22;10546;50.674;4.616;2022-10-13T10:27:04;16.20;99.90
20773;DHT22;10546;50.674;4.616;2022-10-13T10:29:48;16.20;99.90
20773;DHT22;10546;50.674;4.616;2022-10-13T10:32:27;16.40;99.90
20773;DHT22;10546;50.674;4.616;2022-10-13T10:35:11;16.60;99.90
20773;DHT22;10546;50.674;4.616;2022-10-13T10:45:37;16.80;99.90
20773;DHT22;10546;50.674;4.616;2022-10-13T10:50:37;17.00;99.90
20773;DHT22;10546;50.674;4.616;2022-10-13T11:01:23;17.10;99.90
20773;DHT22;10546;50.674;4.616;2022-10-13T11:06:41;17.40;99.90
20773;DHT22;10546;50.674;4.616;2022-10-13T11:09:10;17.50;99.90
20773;DHT22;10546;50.674;4.616;2022-10-13T11:11:40;17.60;99.90
20773;DHT22;10546;50.674;4.616;2022-10-13T11:19:37;17.40;99.90
20773;DHT22;10546;50.674;4.616;2022-10-13T11:27:25;17.00;99.90
20773;DHT22;10546;50.674;4.616;2022-10-13T11:29:54;16.90;99.90
20773;DHT22;10546;50.674;4.616;2022-10-13T11:34:58;16.60;99.90
20773;DHT22;10546;50.674;4.616;2022-10-13T11:38:00;16.60;99.90
20773;DHT22;10546;50.674;4.616;2022-10-13T11:41:13;16.50;99.90
20773;DHT22;10546;50.674;4.616;2022-10-13T11:46:38;16.40;99.90
20773;DHT22;10546;50.674;4.616;2022-10-13T11:54:35;16.30;99.90
20773;DHT22;10546;50.674;4.616;2022-10-13T11:57:02;16.30;99.90
20773;DHT22;10546;50.674;4.616;2022-10-13T11:59:31;16.30;99.90
20773;DHT22;10546;50.674;4.616;2022-10-13T12:02:05;16.30;99.90
20773;DHT22;10546;50.674;4.616;2022-10-13T12:04:31;16.40;99.90
20773;DHT22;10546;50.674;4.616;2022-10-13T12:07:03;16.40;99.90
20773;DHT22;10546;50.674;4.616;2022-10-13T12:09:29;16.40;99.90
20773;DHT22;10546;50.674;4.616;2022-10-13T12:14:34;16.30;99.90
20773;DHT22;10546;50.674;4.616;2022-10-13T12:17:01;16.30;99.90
20773;DHT22;10546;50.674;4.616;2022-10-13T12:19:29;16.30;99.90
20773;DHT22;10546;50.674;4.616;2022-10-13T12:21:58;16.30;99.90
20773;DHT22;10546;50.674;4.616;2022-10-13T12:24:27;16.40;99.90
20773;DHT22;10546;50.674;4.616;2022-10-13T12:26:53;16.40;99.90
20773;DHT22;10546;50.674;4.616;2022-10-13T12:29:24;16.30;99.90
20773;DHT22;10546;50.674;4.616;2022-10-13T12:31:50;16.30;99.90
20773;DHT22;10546;50.674;4.616;2022-10-13T12:36:53;16.20;99.90
20773;DHT22;10546;50.674;4.616;2022-10-13T12:39:19;16.10;99.90
20773;DHT22;10546;50.674;4.616;2022-10-13T12:41:46;16.30;99.90
20773;DHT22;10546;50.674;4.616;2022-10-13T12:44:21;16.60;99.90
20773;DHT22;10546;50.674;4.616;2022-10-13T12:46:53;16.70;99.90
20773;DHT22;10546;50.674;4.616;2022-10-13T12:49:24;16.90;99.90
20773;DHT22;10546;50.674;4.616;2022-10-13T12:52:04;17.20;99.90
20773;DHT22;10546;50.674;4.616;2022-10-13T12:54:32;17.20;99.90
20773;DHT22;10546;50.674;4.616;2022-10-13T12:57:01;17.40;99.90
20773;DHT22;10546;50.674;4.616;2022-10-13T12:59:29;17.40;99.90
20773;DHT22;10546;50.674;4.616;2022-10-13T13:02:00;17.30;99.90
20773;DHT22;10546;50.674;4.616;2022-10-13T13:04:31;17.20;99.90
20773;DHT22;10546;50.674;4.616;2022-10-13T13:06:59;17.30;99.90
20773;DHT22;10546;50.674;4.616;2022-10-13T13:14:46;17.10;99.90
20773;DHT22;10546;50.674;4.616;2022-10-13T13:19:44;17.10;99.90
20773;DHT22;10546;50.674;4.616;2022-10-13T13:22:10;17.20;99.90
20773;DHT22;10546;50.674;4.616;2022-10-13T13:24:36;17.10;99.90
20773;DHT22;10546;50.674;4.616;2022-10-13T13:27:22;16.90;99.90
20773;DHT22;10546;50.674;4.616;2022-10-13T13:29:49;16.90;99.90
20773;DHT22;10546;50.674;4.616;2022-10-13T13:32:18;17.00;99.90
20773;DHT22;10546;50.674;4.616;2022-10-13T13:34:44;17.10;99.90
20773;DHT22;10546;50.674;4.616;2022-10-13T13:37:30;17.20;99.90
20773;DHT22;10546;50.674;4.616;2022-10-13T13:39:57;17.30;99.90
20773;DHT22;10546;50.674;4.616;2022-10-13T13:42:23;17.40;99.90
20773;DHT22;10546;50.674;4.616;2022-10-13T13:44:49;17.30;99.90
20773;DHT22;10546;50.674;4.616;2022-10-13T13:47:26;17.10;99.90
20773;DHT22;10546;50.674;4.616;2022-10-13T13:49:53;16.80;99.90
20773;DHT22;10546;50.674;4.616;2022-10-13T13:52:20;16.70;99.90
20773;DHT22;10546;50.674;4.616;2022-10-13T13:54:46;16.60;99.90
20773;DHT22;10546;50.674;4.616;2022-10-13T13:57:15;16.40;99.90
20773;DHT22;10546;50.674;4.616;2022-10-13T13:59:41;16.20;99.90
20773;DHT22;10546;50.674;4.616;2022-10-13T14:02:17;16.10;99.90
20773;DHT22;10546;50.674;4.616;2022-10-13T14:04:43;16.10;99.90
20773;DHT22;10546;50.674;4.616;2022-10-13T14:07:09;16.10;99.90
20773;DHT22;10546;50.674;4.616;2022-10-13T14:09:35;16.10;99.90
20773;DHT22;10546;50.674;4.616;2022-10-13T14:12:00;16.20;99.90
20773;DHT22;10546;50.674;4.616;2022-10-13T14:14:29;16.00;99.90
20773;DHT22;10546;50.674;4.616;2022-10-13T14:16:55;15.90;99.90
20773;DHT22;10546;50.674;4.616;2022-10-13T14:19:21;16.00;99.90
20773;DHT22;10546;50.674;4.616;2022-10-13T14:21:46;15.90;99.90
20773;DHT22;10546;50.674;4.616;2022-10-13T14:24:12;15.80;99.90
20773;DHT22;10546;50.674;4.616;2022-10-13T14:26:37;15.70;99.90
20773;DHT22;10546;50.674;4.616;2022-10-13T14:29:03;15.60;99.90
20773;DHT22;10546;50.674;4.616;2022-10-13T14:31:29;15.70;99.90
20773;DHT22;10546;50.674;4.616;2022-10-13T14:33:56;15.70;99.90
20773;DHT22;10546;50.674;4.616;2022-10-13T14:36:22;15.70;99.90
20773;DHT22;10546;50.674;4.616;2022-10-13T14:38:48;15.80;99.90
20773;DHT22;10546;50.674;4.616;2022-10-13T14:41:15;15.80;99.90
20773;DHT22;10546;50.674;4.616;2022-10-13T14:43:41;15.70;99.90
20773;DHT22;10546;50.674;4.616;2022-10-13T14:46:07;15.70;99.90
20773;DHT22;10546;50.674;4.616;2022-10-13T14:48:34;15.80;99.90
20773;DHT22;10546;50.674;4.616;2022-10-13T14:51:05;15.70;99.90
20773;DHT22;10546;50.674;4.616;2022-10-13T14:53:35;15.60;99.90
20773;DHT22;10546;50.674;4.616;2022-10-13T14:56:01;15.50;99.90
20773;DHT22;10546;50.674;4.616;2022-10-13T14:58:27;15.30;99.90
20773;DHT22;10546;50.674;4.616;2022-10-13T15:00:53;15.30;99.90
20773;DHT22;10546;50.674;4.616;2022-10-13T15:03:20;15.30;99.90
20773;DHT22;10546;50.674;4.616;2022-10-13T15:05:46;15.30;99.90
20773;DHT22;10546;50.674;4.616;2022-10-13T15:08:12;15.20;99.90
20773;DHT22;10546;50.674;4.616;2022-10-13T15:10:37;15.10;99.90
20773;DHT22;10546;50.674;4.616;2022-10-13T15:13:03;15.00;99.90
20773;DHT22;10546;50.674;4.616;2022-10-13T15:15:29;15.00;99.90
20773;DHT22;10546;50.674;4.616;2022-10-13T15:17:54;15.00;99.90
20773;DHT22;10546;50.674;4.616;2022-10-13T15:20:20;15.00;99.90
20773;DHT22;10546;50.674;4.616;2022-10-13T15:22:46;15.10;99.90
20773;DHT22;10546;50.674;4.616;2022-10-13T15:25:12;14.90;99.90
20773;DHT22;10546;50.674;4.616;2022-10-13T15:27:39;14.90;99.90
20773;DHT22;10546;50.674;4.616;2022-10-13T15:30:08;15.00;99.90
20773;DHT22;10546;50.674;4.616;2022-10-13T15:32:34;15.00;99.90
20773;DHT22;10546;50.674;4.616;2022-10-13T15:35:00;15.00;99.90
20773;DHT22;10546;50.674;4.616;2022-10-13T15:37:26;14.90;99.90
20773;DHT22;10546;50.674;4.616;2022-10-13T15:39:53;14.90;99.90
20773;DHT22;10546;50.674;4.616;2022-10-13T15:42:18;14.90;99.90
20773;DHT22;10546;50.674;4.616;2022-10-13T15:44:44;15.00;99.90
20773;DHT22;10546;50.674;4.616;2022-10-13T15:47:09;14.90;99.90
20773;DHT22;10546;50.674;4.616;2022-10-13T15:49:35;14.90;99.90
20773;DHT22;10546;50.674;4.616;2022-10-13T15:52:04;14.80;99.90
20773;DHT22;10546;50.674;4.616;2022-10-13T15:54:30;14.90;99.90
20773;DHT22;10546;50.674;4.616;2022-10-13T15:56:55;14.80;99.90
20773;DHT22;10546;50.674;4.616;2022-10-13T15:59:21;14.90;99.90
20773;DHT22;10546;50.674;4.616;2022-10-13T16:01:47;14.70;99.90
20773;DHT22;10546;50.674;4.616;2022-10-13T16:04:12;14.70;99.90
20773;DHT22;10546;50.674;4.616;2022-10-13T16:06:38;14.60;99.90
20773;DHT22;10546;50.674;4.616;2022-10-13T16:09:03;14.70;99.90
20773;DHT22;10546;50.674;4.616;2022-10-13T16:11:29;14.80;99.90
20773;DHT22;10546;50.674;4.616;2022-10-13T16:13:55;14.70;99.90
20773;DHT22;10546;50.674;4.616;2022-10-13T16:16:20;14.60;99.90
20773;DHT22;10546;50.674;4.616;2022-10-13T16:18:49;14.60;99.90
20773;DHT22;10546;50.674;4.616;2022-10-13T16:21:17;14.60;99.90
20773;DHT22;10546;50.674;4.616;2022-10-13T16:23:44;14.70;99.90
20773;DHT22;10546;50.674;4.616;2022-10-13T16:26:10;14.80;99.90
20773;DHT22;10546;50.674;4.616;2022-10-13T16:28:36;14.90;99.90
20773;DHT22;10546;50.674;4.616;2022-10-13T16:31:07;14.80;99.90
20773;DHT22;10546;50.674;4.616;2022-10-13T16:33:35;14.70;99.90
20773;DHT22;10546;50.674;4.616;2022-10-13T16:36:05;14.70;99.90
20773;DHT22;10546;50.674;4.616;2022-10-13T16:38:31;14.80;99.90
20773;DHT22;10546;50.674;4.616;2022-10-13T16:40:57;14.80;99.90
20773;DHT22;10546;50.674;4.616;2022-10-13T16:43:22;14.80;99.90
20773;DHT22;10546;50.674;4.616;2022-10-13T16:45:55;14.70;99.90
20773;DHT22;10546;50.674;4.616;2022-10-13T16:48:22;14.70;99.90
20773;DHT22;10546;50.674;4.616;2022-10-13T16:50:47;14.70;99.90
20773;DHT22;10546;50.674;4.616;2022-10-13T16:53:13;14.80;99.90
20773;DHT22;10546;50.674;4.616;2022-10-13T16:55:39;14.80;99.90
20773;DHT22;10546;50.674;4.616;2022-10-13T16:58:05;14.90;99.90
20773;DHT22;10546;50.674;4.616;2022-10-13T17:00:31;14.80;99.90
20773;DHT22;10546;50.674;4.616;2022-10-13T17:02:56;14.80;99.90
20773;DHT22;10546;50.674;4.616;2022-10-13T17:05:22;14.80;99.90
20773;DHT22;10546;50.674;4.616;2022-10-13T17:07:48;15.00;99.90
20773;DHT22;10546;50.674;4.616;2022-10-13T17:10:15;14.90;99.90
20773;DHT22;10546;50.674;4.616;2022-10-13T17:12:41;15.00;99.90
20773;DHT22;10546;50.674;4.616;2022-10-13T17:15:07;14.90;99.90
20773;DHT22;10546;50.674;4.616;2022-10-13T17:17:33;14.70;99.90
20773;DHT22;10546;50.674;4.616;2022-10-13T17:20:02;14.70;99.90
20773;DHT22;10546;50.674;4.616;2022-10-13T17:22:28;14.70;99.90
20773;DHT22;10546;50.674;4.616;2022-10-13T17:24:54;14.70;99.90
20773;DHT22;10546;50.674;4.616;2022-10-13T17:27:20;14.70;99.90
20773;DHT22;10546;50.674;4.616;2022-10-13T17:29:45;14.70;99.90
20773;DHT22;10546;50.674;4.616;2022-10-13T17:32:11;14.70;99.90
20773;DHT22;10546;50.674;4.616;2022-10-13T17:34:37;14.60;99.90
20773;DHT22;10546;50.674;4.616;2022-10-13T17:37:03;14.60;99.90
20773;DHT22;10546;50.674;4.616;2022-10-13T17:39:30;14.80;99.90
20773;DHT22;10546;50.674;4.616;2022-10-13T17:41:56;14.80;99.90
20773;DHT22;10546;50.674;4.616;2022-10-13T17:44:21;14.70;99.90
20773;DHT22;10546;50.674;4.616;2022-10-13T17:46:48;14.70;99.90
20773;DHT22;10546;50.674;4.616;2022-10-13T17:49:14;14.70;99.90
20773;DHT22;10546;50.674;4.616;2022-10-13T17:51:41;14.60;99.90
20773;DHT22;10546;50.674;4.616;2022-10-13T17:54:08;14.50;99.90
20773;DHT22;10546;50.674;4.616;2022-10-13T17:56:34;14.50;99.90
20773;DHT22;10546;50.674;4.616;2022-10-13T17:59:00;14.50;99.90
20773;DHT22;10546;50.674;4.616;2022-10-13T18:01:30;14.40;99.90
20773;DHT22;10546;50.674;4.616;2022-10-13T18:04:04;14.60;99.90
20773;DHT22;10546;50.674;4.616;2022-10-13T18:06:32;14.50;99.90
20773;DHT22;10546;50.674;4.616;2022-10-13T18:09:03;14.60;99.90
20773;DHT22;10546;50.674;4.616;2022-10-13T18:11:29;14.50;99.90
20773;DHT22;10546;50.674;4.616;2022-10-13T18:13:54;14.50;99.90
20773;DHT22;10546;50.674;4.616;2022-10-13T18:16:21;14.50;99.90
20773;DHT22;10546;50.674;4.616;2022-10-13T18:18:48;14.50;99.90
20773;DHT22;10546;50.674;4.616;2022-10-13T18:21:16;14.50;99.90
20773;DHT22;10546;50.674;4.616;2022-10-13T18:23:43;14.50;99.90
20773;DHT22;10546;50.674;4.616;2022-10-13T18:26:13;14.40;99.90
20773;DHT22;10546;50.674;4.616;2022-10-13T18:28:40;14.40;99.90
20773;DHT22;10546;50.674;4.616;2022-10-13T18:31:14;14.30;99.90
20773;DHT22;10546;50.674;4.616;2022-10-13T18:33:40;14.40;99.90
20773;DHT22;10546;50.674;4.616;2022-10-13T18:36:14;14.30;99.90
20773;DHT22;10546;50.674;4.616;2022-10-13T18:38:41;14.40;99.90
20773;DHT22;10546;50.674;4.616;2022-10-13T18:41:06;14.30;99.90
20773;DHT22;10546;50.674;4.616;2022-10-13T18:43:32;14.30;99.90
20773;DHT22;10546;50.674;4.616;2022-10-13T18:45:59;14.30;99.90
20773;DHT22;10546;50.674;4.616;2022-10-13T18:48:25;14.40;99.90
20773;DHT22;10546;50.674;4.616;2022-10-13T18:50:50;14.50;99.90
20773;DHT22;10546;50.674;4.616;2022-10-13T18:53:16;14.40;99.90
20773;DHT22;10546;50.674;4.616;2022-10-13T18:55:43;14.30;99.90
20773;DHT22;10546;50.674;4.616;2022-10-13T18:58:09;14.40;99.90
20773;DHT22;10546;50.674;4.616;2022-10-13T19:00:34;14.40;99.90
20773;DHT22;10546;50.674;4.616;2022-10-13T19:03:00;14.40;99.90
20773;DHT22;10546;50.674;4.616;2022-10-13T19:05:26;14.50;99.90
20773;DHT22;10546;50.674;4.616;2022-10-13T19:07:52;14.50;99.90
20773;DHT22;10546;50.674;4.616;2022-10-13T19:10:17;14.40;99.90
20773;DHT22;10546;50.674;4.616;2022-10-13T19:12:43;14.50;99.90
20773;DHT22;10546;50.674;4.616;2022-10-13T19:15:08;14.50;99.90
20773;DHT22;10546;50.674;4.616;2022-10-13T19:17:34;14.50;99.90
20773;DHT22;10546;50.674;4.616;2022-10-13T19:20:00;14.50;99.90
20773;DHT22;10546;50.674;4.616;2022-10-13T19:22:25;14.50;99.90
20773;DHT22;10546;50.674;4.616;2022-10-13T19:24:51;14.50;99.90
20773;DHT22;10546;50.674;4.616;2022-10-13T19:27:16;14.60;99.90
20773;DHT22;10546;50.674;4.616;2022-10-13T19:29:42;14.50;99.90
20773;DHT22;10546;50.674;4.616;2022-10-13T19:32:07;14.60;99.90
20773;DHT22;10546;50.674;4.616;2022-10-13T19:34:33;14.60;99.90
20773;DHT22;10546;50.674;4.616;2022-10-13T19:36:59;14.60;99.90
20773;DHT22;10546;50.674;4.616;2022-10-13T19:39:26;14.50;99.90
20773;DHT22;10546;50.674;4.616;2022-10-13T19:41:54;14.50;99.90
20773;DHT22;10546;50.674;4.616;2022-10-13T19:44:21;14.60;99.90
20773;DHT22;10546;50.674;4.616;2022-10-13T19:46:47;14.60;99.90
20773;DHT22;10546;50.674;4.616;2022-10-13T19:49:15;14.60;99.90
20773;DHT22;10546;50.674;4.616;2022-10-13T19:51:41;14.60;99.90
20773;DHT22;10546;50.674;4.616;2022-10-13T19:54:07;14.50;99.90
20773;DHT22;10546;50.674;4.616;2022-10-13T19:56:33;14.50;99.90
20773;DHT22;10546;50.674;4.616;2022-10-13T19:59:00;14.40;99.90
20773;DHT22;10546;50.674;4.616;2022-10-13T20:01:28;14.40;99.90
20773;DHT22;10546;50.674;4.616;2022-10-13T20:03:54;14.40;99.90
20773;DHT22;10546;50.674;4.616;2022-10-13T20:06:20;14.40;99.90
20773;DHT22;10546;50.674;4.616;2022-10-13T20:08:46;14.30;99.90
20773;DHT22;10546;50.674;4.616;2022-10-13T20:11:14;14.40;99.90
20773;DHT22;10546;50.674;4.616;2022-10-13T20:13:43;14.50;99.90
20773;DHT22;10546;50.674;4.616;2022-10-13T20:16:12;14.40;99.90
20773;DHT22;10546;50.674;4.616;2022-10-13T20:18:38;14.40;99.90
20773;DHT22;10546;50.674;4.616;2022-10-13T20:21:06;14.50;99.90
20773;DHT22;10546;50.674;4.616;2022-10-13T20:23:32;14.50;99.90
20773;DHT22;10546;50.674;4.616;2022-10-13T20:26:02;14.50;99.90
20773;DHT22;10546;50.674;4.616;2022-10-13T20:28:28;14.50;99.90
20773;DHT22;10546;50.674;4.616;2022-10-13T20:30:54;14.50;99.90
20773;DHT22;10546;50.674;4.616;2022-10-13T20:33:19;14.50;99.90
20773;DHT22;10546;50.674;4.616;2022-10-13T20:35:45;14.40;99.90
20773;DHT22;10546;50.674;4.616;2022-10-13T20:38:10;14.40;99.90
20773;DHT22;10546;50.674;4.616;2022-10-13T20:40:36;14.50;99.90
20773;DHT22;10546;50.674;4.616;2022-10-13T20:43:02;14.50;99.90
20773;DHT22;10546;50.674;4.616;2022-10-13T20:45:27;14.60;99.90
20773;DHT22;10546;50.674;4.616;2022-10-13T20:47:53;14.70;99.90
20773;DHT22;10546;50.674;4.616;2022-10-13T20:50:18;14.60;99.90
20773;DHT22;10546;50.674;4.616;2022-10-13T20:52:44;14.50;99.90
20773;DHT22;10546;50.674;4.616;2022-10-13T20:55:09;14.50;99.90
20773;DHT22;10546;50.674;4.616;2022-10-13T20:57:35;14.50;99.90
20773;DHT22;10546;50.674;4.616;2022-10-13T21:00:01;14.50;99.90
20773;DHT22;10546;50.674;4.616;2022-10-13T21:02:26;14.50;99.90
20773;DHT22;10546;50.674;4.616;2022-10-13T21:04:52;14.60;99.90
20773;DHT22;10546;50.674;4.616;2022-10-13T21:07:17;14.60;99.90
20773;DHT22;10546;50.674;4.616;2022-10-13T21:09:43;14.80;99.90
20773;DHT22;10546;50.674;4.616;2022-10-13T21:12:09;14.60;99.90
20773;DHT22;10546;50.674;4.616;2022-10-13T21:14:34;14.60;99.90
20773;DHT22;10546;50.674;4.616;2022-10-13T21:17:00;14.50;99.90
20773;DHT22;10546;50.674;4.616;2022-10-13T21:19:26;14.60;99.90
20773;DHT22;10546;50.674;4.616;2022-10-13T21:21:53;14.60;99.90
20773;DHT22;10546;50.674;4.616;2022-10-13T21:24:19;14.50;99.90
20773;DHT22;10546;50.674;4.616;2022-10-13T21:26:45;14.60;99.90
20773;DHT22;10546;50.674;4.616;2022-10-13T21:29:10;14.60;99.90
20773;DHT22;10546;50.674;4.616;2022-10-13T21:31:39;14.60;99.90
20773;DHT22;10546;50.674;4.616;2022-10-13T21:34:09;14.60;99.90
20773;DHT22;10546;50.674;4.616;2022-10-13T21:36:35;14.60;99.90
20773;DHT22;10546;50.674;4.616;2022-10-13T21:39:06;14.60;99.90
20773;DHT22;10546;50.674;4.616;2022-10-13T21:41:32;14.60;99.90